Time;durP1;ratioP1;P1;durP2;ratioP2;P2;SDS_P1;SDS_P2;PMS_P1;PMS_P2;Temp;Humidity;BMP_temperature;BMP_pressure;BME280_temperature;BME280_humidity;BME280_pressure;Samples;Min_cycle;Max_cycle;Signal;HPM_P1;HPM_P2
2023/07/17 00:02:39;;;;;;;1999.90;999.90;;;;;;;;;;4968065;28;20714;-76
2023/07/17 00:05:25;;;;;;;1999.90;999.90;;;;;;;;;;4970722;28;20207;-76
2023/07/17 00:08:10;;;;;;;1999.90;999.90;;;;;;;;;;4968628;28;20256;-76
2023/07/17 00:10:59;;;;;;;1999.90;999.90;;;;;;;;;;4979078;28;20232;-76
2023/07/17 00:13:44;;;;;;;1999.90;999.90;;;;;;;;;;4978054;28;20221;-76
2023/07/17 00:16:29;;;;;;;1999.90;999.90;;;;;;;;;;4983571;28;20588;-76
2023/07/17 00:19:14;;;;;;;1999.90;999.90;;;;;;;;;;4971549;28;20975;-77
2023/07/17 00:21:59;;;;;;;1999.90;999.90;;;;;;;;;;4985313;28;20255;-76
2023/07/17 00:24:44;;;;;;;1999.90;999.90;;;;;;;;;;4979212;28;20217;-76
2023/07/17 00:27:30;;;;;;;1999.90;999.90;;;;;;;;;;4979372;28;20236;-76
2023/07/17 00:30:15;;;;;;;1999.90;999.90;;;;;;;;;;4979696;28;20319;-76
2023/07/17 00:33:00;;;;;;;1999.90;999.90;;;;;;;;;;4956663;28;20300;-73
2023/07/17 00:35:44;;;;;;;1999.90;999.90;;;;;;;;;;4964886;28;20212;-77
2023/07/17 00:38:29;;;;;;;1999.90;999.90;;;;;;;;;;4954797;28;20269;-76
2023/07/17 00:41:14;;;;;;;1999.90;999.90;;;;;;;;;;4956408;28;20732;-75
2023/07/17 00:44:00;;;;;;;1999.90;999.90;;;;;;;;;;4966741;28;20581;-76
2023/07/17 00:46:47;;;;;;;1999.90;999.90;;;;;;;;;;4969513;28;20300;-76
2023/07/17 00:49:32;;;;;;;1999.90;999.90;;;;;;;;;;4960384;28;20249;-76
2023/07/17 00:52:18;;;;;;;1999.90;999.90;;;;;;;;;;4967145;28;20313;-76
2023/07/17 00:55:04;;;;;;;1999.90;999.90;;;;;;;;;;4978833;28;20217;-75
2023/07/17 00:57:50;;;;;;;1999.90;999.90;;;;;;;;;;4970264;28;20219;-76
2023/07/17 01:00:36;;;;;;;1999.90;999.90;;;;;;;;;;4968702;28;20425;-75
2023/07/17 01:03:22;;;;;;;1999.90;999.90;;;;;;;;;;4973299;28;20574;-75
2023/07/17 01:06:07;;;;;;;1999.90;999.90;;;;;;;;;;4972906;28;20584;-75
2023/07/17 01:08:51;;;;;;;1999.90;999.90;;;;;;;;;;4977995;28;20211;-74
2023/07/17 01:11:36;;;;;;;1999.90;999.90;;;;;;;;;;4966033;28;20339;-75
2023/07/17 01:14:21;;;;;;;1999.90;999.90;;;;;;;;;;4972423;28;20220;-76
2023/07/17 01:17:07;;;;;;;1999.90;999.90;;;;;;;;;;4970820;28;20278;-76
2023/07/17 01:19:53;;;;;;;1999.90;999.90;;;;;;;;;;4975829;28;20223;-76
2023/07/17 01:22:41;;;;;;;1999.90;999.90;;;;;;;;;;4983642;28;20216;-76
2023/07/17 01:25:27;;;;;;;1999.90;999.90;;;;;;;;;;4978530;28;20214;-76
2023/07/17 01:28:13;;;;;;;1999.90;999.90;;;;;;;;;;4985782;28;20213;-76
2023/07/17 01:30:58;;;;;;;1999.90;999.90;;;;;;;;;;4981491;28;20264;-76
2023/07/17 01:33:43;;;;;;;1999.90;999.90;;;;;;;;;;4966973;28;20815;-76
2023/07/17 01:36:28;;;;;;;1999.90;999.90;;;;;;;;;;4961027;28;20595;-76
2023/07/17 01:39:13;;;;;;;1999.90;999.90;;;;;;;;;;4968644;28;20355;-76
2023/07/17 01:41:59;;;;;;;1999.90;999.90;;;;;;;;;;4953101;28;20376;-76
2023/07/17 01:44:44;;;;;;;1999.90;999.90;;;;;;;;;;4955639;28;20581;-76
2023/07/17 01:47:29;;;;;;;1999.90;999.90;;;;;;;;;;4967569;28;20255;-76
2023/07/17 01:50:14;;;;;;;1999.90;999.90;;;;;;;;;;4963064;28;20243;-76
2023/07/17 01:52:59;;;;;;;1999.90;999.90;;;;;;;;;;4959712;28;20261;-76
2023/07/17 01:55:44;;;;;;;1999.90;999.90;;;;;;;;;;4955729;28;20489;-76
2023/07/17 01:58:30;;;;;;;1999.90;999.90;;;;;;;;;;4970095;28;20715;-76
2023/07/17 02:01:16;;;;;;;1999.90;999.90;;;;;;;;;;4965836;28;20237;-76
2023/07/17 02:04:01;;;;;;;1999.90;999.90;;;;;;;;;;4967647;28;20343;-77
2023/07/17 02:06:46;;;;;;;1999.90;999.90;;;;;;;;;;4962920;28;20614;-76
2023/07/17 02:09:31;;;;;;;1999.90;999.90;;;;;;;;;;4965152;28;20317;-76
2023/07/17 02:12:16;;;;;;;1999.90;999.90;;;;;;;;;;4968785;28;20260;-76
2023/07/17 02:15:02;;;;;;;1999.90;999.90;;;;;;;;;;4964050;28;20247;-75
2023/07/17 02:17:48;;;;;;;1999.90;999.90;;;;;;;;;;4970521;28;20264;-75
2023/07/17 02:20:33;;;;;;;1999.90;999.90;;;;;;;;;;4970196;28;20352;-76
2023/07/17 02:23:18;;;;;;;1999.90;999.90;;;;;;;;;;4971001;28;20223;-76
2023/07/17 02:26:03;;;;;;;1999.90;999.90;;;;;;;;;;4974902;28;20296;-75
2023/07/17 02:28:48;;;;;;;1999.90;999.90;;;;;;;;;;4979004;28;20204;-75
2023/07/17 02:31:34;;;;;;;1999.90;999.90;;;;;;;;;;4973598;28;20822;-76
2023/07/17 02:34:19;;;;;;;1999.90;999.90;;;;;;;;;;4953467;29;20220;-76
2023/07/17 02:37:09;;;;;;;1999.90;999.90;;;;;;;;;;4953813;29;20212;-75
2023/07/17 02:39:54;;;;;;;1999.90;999.90;;;;;;;;;;4953868;28;20284;-76
2023/07/17 02:42:39;;;;;;;1999.90;999.90;;;;;;;;;;4960830;28;20213;-73
2023/07/17 02:45:24;;;;;;;1999.90;999.90;;;;;;;;;;4974561;28;20696;-76
2023/07/17 02:48:11;;;;;;;1999.90;999.90;;;;;;;;;;4974955;28;20228;-76
2023/07/17 02:50:56;;;;;;;1999.90;999.90;;;;;;;;;;4968137;28;20240;-75
2023/07/17 02:53:41;;;;;;;1999.90;999.90;;;;;;;;;;4974470;28;20208;-76
2023/07/17 02:56:26;;;;;;;1999.90;999.90;;;;;;;;;;4967770;28;20310;-76
2023/07/17 02:59:11;;;;;;;1999.90;999.90;;;;;;;;;;4975599;28;20798;-76
2023/07/17 03:01:56;;;;;;;1999.90;999.90;;;;;;;;;;4976263;28;20315;-76
2023/07/17 03:04:44;;;;;;;1999.90;999.90;;;;;;;;;;4967262;28;20215;-76
2023/07/17 03:07:29;;;;;;;1999.90;999.90;;;;;;;;;;4980960;28;20219;-75
2023/07/17 03:10:14;;;;;;;1999.90;999.90;;;;;;;;;;4977191;28;20316;-76
2023/07/17 03:12:59;;;;;;;1999.90;999.90;;;;;;;;;;4965512;28;20213;-76
2023/07/17 03:15:44;;;;;;;1999.90;999.90;;;;;;;;;;4975530;28;20743;-76
2023/07/17 03:18:29;;;;;;;1999.90;999.90;;;;;;;;;;4976165;28;20255;-76
2023/07/17 03:21:15;;;;;;;1999.90;999.90;;;;;;;;;;4969037;28;20240;-76
2023/07/17 03:24:00;;;;;;;1999.90;999.90;;;;;;;;;;4979283;28;20302;-74
2023/07/17 03:26:45;;;;;;;1999.90;999.90;;;;;;;;;;4980368;28;20219;-75
2023/07/17 03:29:30;;;;;;;1999.90;999.90;;;;;;;;;;4974364;28;20583;-76
2023/07/17 03:32:15;;;;;;;1999.90;999.90;;;;;;;;;;4981706;28;20233;-76
2023/07/17 03:35:00;;;;;;;1999.90;999.90;;;;;;;;;;4979291;28;20271;-76
2023/07/17 03:37:46;;;;;;;1999.90;999.90;;;;;;;;;;4987253;28;20676;-76
2023/07/17 03:40:31;;;;;;;1999.90;999.90;;;;;;;;;;4978959;28;20234;-76
2023/07/17 03:43:16;;;;;;;1999.90;999.90;;;;;;;;;;4985641;28;20207;-76
2023/07/17 03:46:02;;;;;;;1999.90;999.90;;;;;;;;;;4967829;28;20290;-76
2023/07/17 03:48:46;;;;;;;1999.90;999.90;;;;;;;;;;4975502;28;20217;-76
2023/07/17 03:51:31;;;;;;;1999.90;999.90;;;;;;;;;;4977999;28;20279;-76
2023/07/17 03:54:17;;;;;;;1999.90;999.90;;;;;;;;;;4975935;28;20221;-76
2023/07/17 03:57:02;;;;;;;1999.90;999.90;;;;;;;;;;4986502;28;20265;-76
2023/07/17 03:59:48;;;;;;;1999.90;999.90;;;;;;;;;;4975521;28;20295;-72
2023/07/17 04:02:33;;;;;;;1999.90;999.90;;;;;;;;;;4971415;28;20211;-76
2023/07/17 04:05:18;;;;;;;1999.90;999.90;;;;;;;;;;4972230;28;20299;-75
2023/07/17 04:08:03;;;;;;;1999.90;999.90;;;;;;;;;;4974602;28;20212;-75
2023/07/17 04:10:50;;;;;;;1999.90;999.90;;;;;;;;;;4968815;28;20235;-76
2023/07/17 04:13:35;;;;;;;1999.90;999.90;;;;;;;;;;4976369;28;20207;-74
2023/07/17 04:16:21;;;;;;;1999.90;999.90;;;;;;;;;;4973401;28;20226;-75
2023/07/17 04:19:06;;;;;;;1999.90;999.90;;;;;;;;;;4974460;28;20188;-74
2023/07/17 04:21:51;;;;;;;1999.90;999.90;;;;;;;;;;4971534;28;20228;-75
2023/07/17 04:24:36;;;;;;;1999.90;999.90;;;;;;;;;;4972246;28;20211;-75
2023/07/17 04:27:22;;;;;;;1999.90;999.90;;;;;;;;;;4992583;28;20342;-76
2023/07/17 04:30:08;;;;;;;1999.90;999.90;;;;;;;;;;4974290;28;20228;-75
2023/07/17 04:32:54;;;;;;;1999.90;999.90;;;;;;;;;;4974445;28;20187;-77
2023/07/17 04:35:39;;;;;;;1999.90;999.90;;;;;;;;;;4969976;28;20216;-75
2023/07/17 04:38:24;;;;;;;1999.90;999.90;;;;;;;;;;4962803;28;20209;-74
2023/07/17 04:41:10;;;;;;;1999.90;999.90;;;;;;;;;;4976966;28;20295;-76
2023/07/17 04:43:56;;;;;;;1999.90;999.90;;;;;;;;;;4983452;28;20344;-75
2023/07/17 04:46:41;;;;;;;1999.90;999.90;;;;;;;;;;4965646;28;20208;-73
2023/07/17 04:49:26;;;;;;;1999.90;999.90;;;;;;;;;;4973705;28;20212;-76
2023/07/17 04:52:10;;;;;;;1999.90;999.90;;;;;;;;;;4979515;28;20711;-72
2023/07/17 04:54:55;;;;;;;1999.90;999.90;;;;;;;;;;4970993;28;20583;-71
2023/07/17 04:57:41;;;;;;;1999.90;999.90;;;;;;;;;;4975026;28;20212;-76
2023/07/17 05:00:27;;;;;;;1999.90;999.90;;;;;;;;;;4972359;28;20235;-75
2023/07/17 05:03:12;;;;;;;1999.90;999.90;;;;;;;;;;4970575;28;20208;-76
2023/07/17 05:05:57;;;;;;;1999.90;999.90;;;;;;;;;;4971364;28;20355;-75
2023/07/17 05:08:42;;;;;;;1999.90;999.90;;;;;;;;;;4980650;28;20196;-75
2023/07/17 05:11:27;;;;;;;1999.90;999.90;;;;;;;;;;4970583;28;20607;-75
2023/07/17 05:14:12;;;;;;;1999.90;999.90;;;;;;;;;;4973520;28;20208;-75
2023/07/17 05:16:58;;;;;;;1999.90;999.90;;;;;;;;;;4973370;28;20631;-76
2023/07/17 05:19:44;;;;;;;1999.90;999.90;;;;;;;;;;4970279;28;20688;-76
2023/07/17 05:22:29;;;;;;;1999.90;999.90;;;;;;;;;;4972828;28;20236;-75
2023/07/17 05:25:13;;;;;;;1999.90;999.90;;;;;;;;;;4972885;28;20295;-75
2023/07/17 05:27:58;;;;;;;1999.90;999.90;;;;;;;;;;4969966;28;20300;-72
2023/07/17 05:30:43;;;;;;;1999.90;999.90;;;;;;;;;;4970333;28;20224;-72
2023/07/17 05:33:30;;;;;;;1999.90;999.90;;;;;;;;;;4972076;28;20461;-73
2023/07/17 05:36:14;;;;;;;1999.90;999.90;;;;;;;;;;4972589;28;20227;-72
2023/07/17 05:38:59;;;;;;;1999.90;999.90;;;;;;;;;;4969868;28;20227;-75
2023/07/17 05:41:44;;;;;;;1999.90;999.90;;;;;;;;;;4972043;28;20244;-74
2023/07/17 05:44:29;;;;;;;1999.90;999.90;;;;;;;;;;4966869;28;20722;-73
2023/07/17 05:47:15;;;;;;;1999.90;999.90;;;;;;;;;;4965066;28;20325;-74
2023/07/17 05:50:01;;;;;;;1999.90;999.90;;;;;;;;;;4962889;28;20223;-73
2023/07/17 05:52:46;;;;;;;1999.90;999.90;;;;;;;;;;4964351;28;20203;-76
2023/07/17 05:55:31;;;;;;;1999.90;999.90;;;;;;;;;;4975290;28;20316;-76
2023/07/17 05:58:16;;;;;;;1999.90;999.90;;;;;;;;;;4981091;28;20215;-75
2023/07/17 06:01:01;;;;;;;1999.90;999.90;;;;;;;;;;4972640;28;20296;-75
2023/07/17 06:03:47;;;;;;;1999.90;999.90;;;;;;;;;;4971117;28;20343;-76
2023/07/17 06:06:34;;;;;;;1999.90;999.90;;;;;;;;;;4970618;28;20328;-75
2023/07/17 06:09:19;;;;;;;1999.90;999.90;;;;;;;;;;4973871;28;20504;-76
2023/07/17 06:12:04;;;;;;;1999.90;999.90;;;;;;;;;;4972610;28;20236;-75
2023/07/17 06:14:49;;;;;;;1999.90;999.90;;;;;;;;;;4966212;28;20585;-74
2023/07/17 06:17:35;;;;;;;1999.90;999.90;;;;;;;;;;4973259;28;20768;-74
2023/07/17 06:20:20;;;;;;;1999.90;999.90;;;;;;;;;;4976532;28;20272;-75
2023/07/17 06:23:06;;;;;;;1999.90;999.90;;;;;;;;;;4983307;28;20205;-76
2023/07/17 06:25:51;;;;;;;1999.90;999.90;;;;;;;;;;4969913;28;20253;-75
2023/07/17 06:28:36;;;;;;;1999.90;999.90;;;;;;;;;;4974722;28;20423;-74
2023/07/17 06:31:21;;;;;;;1999.90;999.90;;;;;;;;;;4970759;28;20250;-71
2023/07/17 06:34:06;;;;;;;1999.90;999.90;;;;;;;;;;4975743;28;20336;-76
2023/07/17 06:36:51;;;;;;;1999.90;999.90;;;;;;;;;;4962282;28;20706;-75
2023/07/17 06:39:38;;;;;;;1999.90;999.90;;;;;;;;;;4974331;28;20375;-74
2023/07/17 06:42:22;;;;;;;1999.90;999.90;;;;;;;;;;4962683;28;20235;-75
2023/07/17 06:45:12;;;;;;;1999.90;999.90;;;;;;;;;;4968542;28;20215;-72
2023/07/17 06:47:57;;;;;;;1999.90;999.90;;;;;;;;;;4969114;28;20228;-71
2023/07/17 06:50:42;;;;;;;1999.90;999.90;;;;;;;;;;4972250;28;20785;-71
2023/07/17 06:53:27;;;;;;;1999.90;999.90;;;;;;;;;;4973110;28;20221;-72
2023/07/17 06:56:13;;;;;;;1999.90;999.90;;;;;;;;;;4963973;28;20303;-71
2023/07/17 06:58:58;;;;;;;1999.90;999.90;;;;;;;;;;4970029;28;20215;-70
2023/07/17 07:01:43;;;;;;;1999.90;999.90;;;;;;;;;;4969363;28;20235;-72
2023/07/17 07:04:28;;;;;;;1999.90;999.90;;;;;;;;;;4961919;28;20619;-72
2023/07/17 07:07:13;;;;;;;1999.90;999.90;;;;;;;;;;4963756;28;20252;-72
2023/07/17 07:09:58;;;;;;;1999.90;999.90;;;;;;;;;;4967725;28;20334;-72
2023/07/17 07:12:45;;;;;;;1999.90;999.90;;;;;;;;;;4964057;28;20217;-71
2023/07/17 07:15:30;;;;;;;1999.90;999.90;;;;;;;;;;4958245;28;20596;-71
2023/07/17 07:18:15;;;;;;;1999.90;999.90;;;;;;;;;;4963296;28;20217;-73
2023/07/17 07:20:59;;;;;;;1999.90;999.90;;;;;;;;;;4960366;28;20240;-72
2023/07/17 07:23:44;;;;;;;1999.90;999.90;;;;;;;;;;4961850;28;20212;-72
2023/07/17 07:26:31;;;;;;;1999.90;999.90;;;;;;;;;;4962663;28;20717;-72
2023/07/17 07:29:17;;;;;;;1999.90;999.90;;;;;;;;;;4958983;28;20221;-72
2023/07/17 07:32:02;;;;;;;1999.90;999.90;;;;;;;;;;4962948;28;20236;-71
2023/07/17 07:34:47;;;;;;;1999.90;999.90;;;;;;;;;;4964510;28;20214;-71
2023/07/17 07:37:32;;;;;;;1999.90;999.90;;;;;;;;;;4961433;28;20272;-71
2023/07/17 07:40:17;;;;;;;1999.90;999.90;;;;;;;;;;4959303;28;20233;-71
2023/07/17 07:43:02;;;;;;;1999.90;999.90;;;;;;;;;;4959845;28;20214;-73
2023/07/17 07:45:48;;;;;;;1999.90;999.90;;;;;;;;;;4959909;28;20218;-71
2023/07/17 07:48:34;;;;;;;1999.90;999.90;;;;;;;;;;4972843;28;20219;-71
2023/07/17 07:51:18;;;;;;;1999.90;999.90;;;;;;;;;;4962038;28;20304;-73
2023/07/17 07:54:04;;;;;;;1999.90;999.90;;;;;;;;;;4957727;28;20226;-71
2023/07/17 07:56:50;;;;;;;1999.90;999.90;;;;;;;;;;4965477;28;21024;-70
2023/07/17 07:59:34;;;;;;;1999.90;999.90;;;;;;;;;;4961389;28;20249;-72
2023/07/17 08:02:21;;;;;;;1999.90;999.90;;;;;;;;;;4960991;28;20240;-71
2023/07/17 08:05:06;;;;;;;1999.90;999.90;;;;;;;;;;4960926;28;20351;-71
2023/07/17 08:07:51;;;;;;;1999.90;999.90;;;;;;;;;;4959236;28;20219;-71
2023/07/17 08:10:38;;;;;;;1999.90;999.90;;;;;;;;;;4965856;28;20243;-72
2023/07/17 08:13:23;;;;;;;1999.90;999.90;;;;;;;;;;4961723;28;20342;-73
2023/07/17 08:16:08;;;;;;;1999.90;999.90;;;;;;;;;;4958533;28;20434;-72
2023/07/17 08:18:54;;;;;;;1999.90;999.90;;;;;;;;;;4968947;28;20267;-71
2023/07/17 08:21:39;;;;;;;1999.90;999.90;;;;;;;;;;4963141;28;20242;-72
2023/07/17 08:24:24;;;;;;;1999.90;999.90;;;;;;;;;;4966204;28;20347;-70
2023/07/17 08:27:09;;;;;;;1999.90;999.90;;;;;;;;;;4966545;28;20573;-71
2023/07/17 08:29:54;;;;;;;1999.90;999.90;;;;;;;;;;4960636;28;20220;-71
2023/07/17 08:32:40;;;;;;;1999.90;999.90;;;;;;;;;;4967550;28;20207;-72
2023/07/17 08:35:26;;;;;;;1999.90;999.90;;;;;;;;;;4974783;28;20422;-72
2023/07/17 08:38:11;;;;;;;1999.90;999.90;;;;;;;;;;4964669;28;20582;-71
2023/07/17 08:40:57;;;;;;;1999.90;999.90;;;;;;;;;;4957166;28;20780;-71
2023/07/17 08:43:42;;;;;;;1999.90;999.90;;;;;;;;;;4965411;28;20211;-73
2023/07/17 08:46:27;;;;;;;1999.90;999.90;;;;;;;;;;4965219;28;20347;-71
2023/07/17 08:49:13;;;;;;;1999.90;999.90;;;;;;;;;;4962762;28;20264;-71
2023/07/17 08:52:00;;;;;;;1999.90;999.90;;;;;;;;;;4961637;28;20443;-71
2023/07/17 08:54:45;;;;;;;1999.90;999.90;;;;;;;;;;4960360;28;20319;-71
2023/07/17 08:57:32;;;;;;;1999.90;999.90;;;;;;;;;;4959226;28;20279;-71
2023/07/17 09:00:19;;;;;;;1999.90;999.90;;;;;;;;;;4960339;28;20229;-71
2023/07/17 09:03:04;;;;;;;1999.90;999.90;;;;;;;;;;4971854;28;20839;-71
2023/07/17 09:05:49;;;;;;;1999.90;999.90;;;;;;;;;;4972500;28;20723;-72
2023/07/17 09:08:35;;;;;;;1999.90;999.90;;;;;;;;;;4966843;28;20708;-71
2023/07/17 09:11:20;;;;;;;1999.90;999.90;;;;;;;;;;4962714;28;20431;-72
2023/07/17 09:14:07;;;;;;;1999.90;999.90;;;;;;;;;;4970014;28;20294;-72
2023/07/17 09:17:00;;;;;;;1999.90;999.90;;;;;;;;;;4977527;28;20253;-72
2023/07/17 09:19:45;;;;;;;1999.90;999.90;;;;;;;;;;4975125;28;20271;-73
2023/07/17 09:22:30;;;;;;;1999.90;999.90;;;;;;;;;;4971943;28;20306;-72
2023/07/17 09:25:17;;;;;;;1999.90;999.90;;;;;;;;;;4972072;28;20233;-72
2023/07/17 09:28:02;;;;;;;1999.90;999.90;;;;;;;;;;4972766;28;20271;-72
2023/07/17 09:30:59;;;;;;;1999.90;999.90;;;;;;;;;;4972117;28;20228;-72
2023/07/17 09:33:44;;;;;;;1999.90;999.90;;;;;;;;;;4970944;28;20204;-73
2023/07/17 09:36:29;;;;;;;1999.90;999.90;;;;;;;;;;4972535;28;20216;-72
2023/07/17 09:39:14;;;;;;;1999.90;999.90;;;;;;;;;;4970372;28;20215;-72
2023/07/17 09:42:01;;;;;;;1999.90;999.90;;;;;;;;;;4972775;28;20231;-73
2023/07/17 09:44:46;;;;;;;1999.90;999.90;;;;;;;;;;4971984;28;20535;-72
2023/07/17 09:47:31;;;;;;;1999.90;999.90;;;;;;;;;;4972427;28;20744;-72
2023/07/17 09:50:16;;;;;;;1999.90;999.90;;;;;;;;;;4971126;28;20228;-72
2023/07/17 09:53:02;;;;;;;1999.90;999.90;;;;;;;;;;4973167;28;20302;-73
2023/07/17 09:55:48;;;;;;;1999.90;999.90;;;;;;;;;;4976483;28;20215;-73
2023/07/17 09:58:36;;;;;;;1999.90;999.90;;;;;;;;;;4976370;28;20222;-72
2023/07/17 10:01:24;;;;;;;1999.90;999.90;;;;;;;;;;4975215;28;20229;-73
2023/07/17 10:04:09;;;;;;;1999.90;999.90;;;;;;;;;;4973725;28;20411;-72
2023/07/17 10:06:54;;;;;;;1999.90;999.90;;;;;;;;;;4973183;28;20622;-73
2023/07/17 10:09:41;;;;;;;1999.90;999.90;;;;;;;;;;4975962;28;20308;-72
2023/07/17 10:12:28;;;;;;;1999.90;999.90;;;;;;;;;;4971757;28;20219;-73
2023/07/17 10:15:15;;;;;;;1999.90;999.90;;;;;;;;;;4971916;28;20298;-73
2023/07/17 10:18:00;;;;;;;1999.90;999.90;;;;;;;;;;4968533;28;20351;-73
2023/07/17 10:20:52;;;;;;;1999.90;999.90;;;;;;;;;;4971612;28;20232;-72
2023/07/17 10:23:37;;;;;;;1999.90;999.90;;;;;;;;;;4965624;28;20216;-74
2023/07/17 10:26:22;;;;;;;1999.90;999.90;;;;;;;;;;4970980;28;20583;-72
2023/07/17 10:29:07;;;;;;;1999.90;999.90;;;;;;;;;;4970593;28;20216;-72
2023/07/17 10:31:53;;;;;;;1999.90;999.90;;;;;;;;;;4981086;28;20325;-71
2023/07/17 10:34:49;;;;;;;1999.90;999.90;;;;;;;;;;4976593;28;20220;-72
2023/07/17 10:37:41;;;;;;;1999.90;999.90;;;;;;;;;;4977915;28;20211;-71
2023/07/17 10:40:27;;;;;;;1999.90;999.90;;;;;;;;;;4967079;28;20598;-72
2023/07/17 10:43:14;;;;;;;1999.90;999.90;;;;;;;;;;4975003;28;20240;-71
2023/07/17 10:45:59;;;;;;;1999.90;999.90;;;;;;;;;;4972060;28;20328;-73
2023/07/17 10:48:45;;;;;;;1999.90;999.90;;;;;;;;;;4973325;28;20694;-70
2023/07/17 10:51:30;;;;;;;1999.90;999.90;;;;;;;;;;4975311;28;20235;-70
2023/07/17 10:54:16;;;;;;;1999.90;999.90;;;;;;;;;;4974409;28;20204;-71
2023/07/17 10:57:03;;;;;;;1999.90;999.90;;;;;;;;;;4975280;28;20224;-71
2023/07/17 10:59:47;;;;;;;1999.90;999.90;;;;;;;;;;4974538;28;20781;-72
2023/07/17 11:02:33;;;;;;;1999.90;999.90;;;;;;;;;;4973554;28;20228;-71
2023/07/17 11:05:19;;;;;;;1999.90;999.90;;;;;;;;;;4976473;28;20232;-73
2023/07/17 11:08:05;;;;;;;1999.90;999.90;;;;;;;;;;4977501;28;20231;-71
2023/07/17 11:10:50;;;;;;;1999.90;999.90;;;;;;;;;;4974900;28;20240;-72
2023/07/17 11:13:35;;;;;;;1999.90;999.90;;;;;;;;;;4973417;28;20339;-71
2023/07/17 11:16:20;;;;;;;1999.90;999.90;;;;;;;;;;4977318;28;20223;-72
2023/07/17 11:19:06;;;;;;;1999.90;999.90;;;;;;;;;;4979421;28;20220;-74
2023/07/17 11:21:52;;;;;;;1999.90;999.90;;;;;;;;;;4979110;28;20236;-73
2023/07/17 11:24:38;;;;;;;1999.90;999.90;;;;;;;;;;4976980;28;20212;-71
2023/07/17 11:27:23;;;;;;;1999.90;999.90;;;;;;;;;;4972556;28;20211;-72
2023/07/17 11:30:15;;;;;;;1999.90;999.90;;;;;;;;;;4976964;28;20255;-72
2023/07/17 11:33:01;;;;;;;1999.90;999.90;;;;;;;;;;4971419;28;20201;-72
2023/07/17 11:35:47;;;;;;;1999.90;999.90;;;;;;;;;;4974326;28;20697;-73
2023/07/17 11:38:33;;;;;;;1999.90;999.90;;;;;;;;;;4974774;28;20227;-72
2023/07/17 11:41:19;;;;;;;1999.90;999.90;;;;;;;;;;4973471;28;20233;-72
2023/07/17 11:44:07;;;;;;;1999.90;999.90;;;;;;;;;;4976446;28;20655;-73
2023/07/17 11:46:53;;;;;;;1999.90;999.90;;;;;;;;;;4977550;28;20210;-72
2023/07/17 11:49:42;;;;;;;1999.90;999.90;;;;;;;;;;4969934;28;20220;-72
2023/07/17 11:52:32;;;;;;;1999.90;999.90;;;;;;;;;;4973027;28;20218;-72
2023/07/17 11:55:22;;;;;;;1999.90;999.90;;;;;;;;;;4978418;28;20914;-72
2023/07/17 11:58:17;;;;;;;1999.90;999.90;;;;;;;;;;4971466;28;20211;-73
2023/07/17 12:01:03;;;;;;;1999.90;999.90;;;;;;;;;;4981204;28;20314;-72
2023/07/17 12:03:49;;;;;;;1999.90;999.90;;;;;;;;;;4974417;28;20706;-72
2023/07/17 12:06:34;;;;;;;1999.90;999.90;;;;;;;;;;4974429;28;20343;-72
2023/07/17 12:09:19;;;;;;;1999.90;999.90;;;;;;;;;;4974415;28;20291;-72
2023/07/17 12:12:06;;;;;;;1999.90;999.90;;;;;;;;;;4974565;28;20352;-72
2023/07/17 12:14:51;;;;;;;1999.90;999.90;;;;;;;;;;4974436;28;20287;-72
2023/07/17 12:17:36;;;;;;;1999.90;999.90;;;;;;;;;;4973435;28;20216;-72
2023/07/17 12:20:21;;;;;;;1999.90;999.90;;;;;;;;;;4974028;28;20236;-72
2023/07/17 12:23:06;;;;;;;1999.90;999.90;;;;;;;;;;4974125;28;20696;-71
2023/07/17 12:25:51;;;;;;;1999.90;999.90;;;;;;;;;;4964293;28;20208;-70
2023/07/17 12:28:38;;;;;;;1999.90;999.90;;;;;;;;;;4969839;28;20728;-72
2023/07/17 12:31:24;;;;;;;1999.90;999.90;;;;;;;;;;4967080;28;20324;-72
2023/07/17 12:34:09;;;;;;;1999.90;999.90;;;;;;;;;;4975488;28;20280;-72
2023/07/17 12:36:53;;;;;;;1999.90;999.90;;;;;;;;;;4971427;28;20216;-72
2023/07/17 12:39:38;;;;;;;1999.90;999.90;;;;;;;;;;4971766;28;20276;-71
2023/07/17 12:42:23;;;;;;;1999.90;999.90;;;;;;;;;;4980396;28;20701;-73
2023/07/17 12:45:10;;;;;;;1999.90;999.90;;;;;;;;;;4975220;28;20225;-72
2023/07/17 12:47:55;;;;;;;1999.90;999.90;;;;;;;;;;4972104;28;20636;-72
2023/07/17 12:50:40;;;;;;;1999.90;999.90;;;;;;;;;;4969298;28;20233;-72
2023/07/17 12:53:25;;;;;;;1999.90;999.90;;;;;;;;;;4970395;28;20289;-71
2023/07/17 12:56:10;;;;;;;1999.90;999.90;;;;;;;;;;4972171;28;20672;-70
2023/07/17 12:58:55;;;;;;;1999.90;999.90;;;;;;;;;;4971724;28;20208;-72
2023/07/17 13:01:41;;;;;;;1999.90;999.90;;;;;;;;;;4971768;28;20242;-72
2023/07/17 13:04:26;;;;;;;1999.90;999.90;;;;;;;;;;4971889;28;20308;-72
2023/07/17 13:07:11;;;;;;;1999.90;999.90;;;;;;;;;;4969848;28;20212;-71
2023/07/17 13:09:56;;;;;;;1999.90;999.90;;;;;;;;;;4965119;28;20295;-73
2023/07/17 13:12:41;;;;;;;1999.90;999.90;;;;;;;;;;4966597;28;20582;-72
2023/07/17 13:15:26;;;;;;;1999.90;999.90;;;;;;;;;;4970433;28;20244;-72
2023/07/17 13:18:13;;;;;;;1999.90;999.90;;;;;;;;;;4974959;28;20305;-72
2023/07/17 13:20:58;;;;;;;1999.90;999.90;;;;;;;;;;4973155;28;20747;-72
2023/07/17 13:23:43;;;;;;;1999.90;999.90;;;;;;;;;;4968580;28;20439;-71
2023/07/17 13:26:29;;;;;;;1999.90;999.90;;;;;;;;;;4965331;28;20708;-72
2023/07/17 13:29:14;;;;;;;1999.90;999.90;;;;;;;;;;4972198;28;20228;-72
2023/07/17 13:31:59;;;;;;;1999.90;999.90;;;;;;;;;;4979752;28;20234;-71
2023/07/17 13:34:46;;;;;;;1999.90;999.90;;;;;;;;;;4970242;28;20590;-72
2023/07/17 13:37:31;;;;;;;1999.90;999.90;;;;;;;;;;4970631;28;20297;-74
2023/07/17 13:40:16;;;;;;;1999.90;999.90;;;;;;;;;;4968675;28;20594;-73
2023/07/17 13:43:00;;;;;;;1999.90;999.90;;;;;;;;;;4973121;28;20403;-72
2023/07/17 13:45:45;;;;;;;1999.90;999.90;;;;;;;;;;4971623;28;20575;-71
2023/07/17 13:48:30;;;;;;;1999.90;999.90;;;;;;;;;;4971503;28;20785;-72
2023/07/17 13:51:16;;;;;;;1999.90;999.90;;;;;;;;;;4973147;28;20246;-72
2023/07/17 13:54:01;;;;;;;1999.90;999.90;;;;;;;;;;4969464;28;20321;-71
2023/07/17 13:56:46;;;;;;;1999.90;999.90;;;;;;;;;;4978955;28;20250;-72
2023/07/17 13:59:31;;;;;;;1999.90;999.90;;;;;;;;;;4963414;28;20326;-73
2023/07/17 14:02:16;;;;;;;1999.90;999.90;;;;;;;;;;4968280;28;20727;-72
2023/07/17 14:05:01;;;;;;;1999.90;999.90;;;;;;;;;;4973291;28;20598;-71
2023/07/17 14:07:47;;;;;;;1999.90;999.90;;;;;;;;;;4966836;28;20215;-71
2023/07/17 14:10:32;;;;;;;1999.90;999.90;;;;;;;;;;4964018;28;20243;-70
2023/07/17 14:13:17;;;;;;;1999.90;999.90;;;;;;;;;;4971632;28;20203;-71
2023/07/17 14:16:02;;;;;;;1999.90;999.90;;;;;;;;;;4972652;28;20219;-71
2023/07/17 14:18:47;;;;;;;1999.90;999.90;;;;;;;;;;4958195;28;20444;-71
2023/07/17 14:21:32;;;;;;;1999.90;999.90;;;;;;;;;;4962345;28;20334;-71
2023/07/17 14:24:18;;;;;;;1999.90;999.90;;;;;;;;;;4967704;28;20229;-72
2023/07/17 14:27:03;;;;;;;1999.90;999.90;;;;;;;;;;4967373;28;20215;-72
2023/07/17 14:29:48;;;;;;;1999.90;999.90;;;;;;;;;;4964832;28;20299;-72
2023/07/17 14:32:33;;;;;;;1999.90;999.90;;;;;;;;;;4969031;28;20228;-72
2023/07/17 14:35:19;;;;;;;1999.90;999.90;;;;;;;;;;4969216;28;20212;-71
2023/07/17 14:38:04;;;;;;;1999.90;999.90;;;;;;;;;;4967279;28;20449;-71
2023/07/17 14:40:50;;;;;;;1999.90;999.90;;;;;;;;;;4959368;28;20635;-71
2023/07/17 14:43:36;;;;;;;1999.90;999.90;;;;;;;;;;4974122;28;20224;-70
2023/07/17 14:46:21;;;;;;;1999.90;999.90;;;;;;;;;;4973085;28;20216;-71
2023/07/17 14:49:06;;;;;;;1999.90;999.90;;;;;;;;;;4970628;28;20256;-72
2023/07/17 14:51:51;;;;;;;1999.90;999.90;;;;;;;;;;4966535;28;20260;-73
2023/07/17 14:54:36;;;;;;;1999.90;999.90;;;;;;;;;;4963867;28;20212;-72
2023/07/17 14:57:22;;;;;;;1999.90;999.90;;;;;;;;;;4971272;28;20220;-73
2023/07/17 15:00:08;;;;;;;1999.90;999.90;;;;;;;;;;4967240;28;20236;-72
2023/07/17 15:02:53;;;;;;;1999.90;999.90;;;;;;;;;;4970744;28;20219;-73
2023/07/17 15:05:38;;;;;;;1999.90;999.90;;;;;;;;;;4970593;28;20217;-74
2023/07/17 15:08:23;;;;;;;1999.90;999.90;;;;;;;;;;4974827;28;20204;-73
2023/07/17 15:11:08;;;;;;;1999.90;999.90;;;;;;;;;;4968557;28;20243;-73
2023/07/17 15:13:55;;;;;;;1999.90;999.90;;;;;;;;;;4960269;28;20295;-74
2023/07/17 15:16:40;;;;;;;1999.90;999.90;;;;;;;;;;4961638;28;20886;-73
2023/07/17 15:19:25;;;;;;;1999.90;999.90;;;;;;;;;;4974275;28;20216;-72
2023/07/17 15:22:11;;;;;;;1999.90;999.90;;;;;;;;;;4964289;28;20231;-73
2023/07/17 15:24:56;;;;;;;1999.90;999.90;;;;;;;;;;4966179;28;20227;-72